sensor_id;sensor_type;location;lat;lon;timestamp;pressure;altitude;pressure_sealevel;temperature;humidity
51227;BME280;42714;48.260;10.980;2023-08-31T00:00:45;965.1;;;12.4;100.0
51227;BME280;42714;48.260;10.980;2023-08-31T00:05:46;965.1;;;12.3;100.0
51227;BME280;42714;48.260;10.980;2023-08-31T00:10:54;965.1;;;12.3;100.0
51227;BME280;42714;48.260;10.980;2023-08-31T00:15:48;965.0;;;12.3;100.0
51227;BME280;42714;48.260;10.980;2023-08-31T00:25:50;965.1;;;12.4;100.0
51227;BME280;42714;48.260;10.980;2023-08-31T00:30:51;965.1;;;12.4;100.0
51227;BME280;42714;48.260;10.980;2023-08-31T00:35:52;965.1;;;12.6;100.0
51227;BME280;42714;48.260;10.980;2023-08-31T00:40:54;965.1;;;12.8;100.0
51227;BME280;42714;48.260;10.980;2023-08-31T00:45:55;965.1;;;12.9;100.0
51227;BME280;42714;48.260;10.980;2023-08-31T00:50:55;965.1;;;13.1;100.0
51227;BME280;42714;48.260;10.980;2023-08-31T00:55:56;965.0;;;13.3;100.0
51227;BME280;42714;48.260;10.980;2023-08-31T01:01:47;965.1;;;13.3;100.0
51227;BME280;42714;48.260;10.980;2023-08-31T01:06:02;965.0;;;13.4;100.0
51227;BME280;42714;48.260;10.980;2023-08-31T01:11:07;965.0;;;13.4;100.0
51227;BME280;42714;48.260;10.980;2023-08-31T01:16:02;965.1;;;13.5;100.0
51227;BME280;42714;48.260;10.980;2023-08-31T01:21:06;965.1;;;13.4;100.0
51227;BME280;42714;48.260;10.980;2023-08-31T01:26:02;965.2;;;13.4;100.0
51227;BME280;42714;48.260;10.980;2023-08-31T01:31:04;965.3;;;13.4;100.0
51227;BME280;42714;48.260;10.980;2023-08-31T01:36:07;965.4;;;13.2;100.0
51227;BME280;42714;48.260;10.980;2023-08-31T01:41:06;965.4;;;13.3;100.0
51227;BME280;42714;48.260;10.980;2023-08-31T01:46:07;965.5;;;13.4;100.0
51227;BME280;42714;48.260;10.980;2023-08-31T01:51:08;965.7;;;13.5;100.0
51227;BME280;42714;48.260;10.980;2023-08-31T01:56:08;965.7;;;13.7;100.0
51227;BME280;42714;48.260;10.980;2023-08-31T02:01:09;965.8;;;13.9;100.0
51227;BME280;42714;48.260;10.980;2023-08-31T02:06:10;965.7;;;13.9;100.0
51227;BME280;42714;48.260;10.980;2023-08-31T02:11:11;965.7;;;14.1;100.0
51227;BME280;42714;48.260;10.980;2023-08-31T02:16:12;965.8;;;14.1;100.0
51227;BME280;42714;48.260;10.980;2023-08-31T02:21:13;965.9;;;14.1;100.0
51227;BME280;42714;48.260;10.980;2023-08-31T02:26:14;966.0;;;14.0;100.0
51227;BME280;42714;48.260;10.980;2023-08-31T02:31:16;966.0;;;14.1;100.0
51227;BME280;42714;48.260;10.980;2023-08-31T02:36:16;965.9;;;14.2;100.0
51227;BME280;42714;48.260;10.980;2023-08-31T02:41:17;965.8;;;14.3;100.0
51227;BME280;42714;48.260;10.980;2023-08-31T02:46:18;965.7;;;14.3;100.0
51227;BME280;42714;48.260;10.980;2023-08-31T02:51:19;965.7;;;14.2;100.0
51227;BME280;42714;48.260;10.980;2023-08-31T02:56:20;965.7;;;13.9;100.0
51227;BME280;42714;48.260;10.980;2023-08-31T03:01:21;965.8;;;13.6;100.0
51227;BME280;42714;48.260;10.980;2023-08-31T03:06:22;965.8;;;13.4;100.0
51227;BME280;42714;48.260;10.980;2023-08-31T03:11:23;966.0;;;13.3;100.0
51227;BME280;42714;48.260;10.980;2023-08-31T03:16:24;966.1;;;13.1;100.0
51227;BME280;42714;48.260;10.980;2023-08-31T03:21:25;966.2;;;13.2;100.0
51227;BME280;42714;48.260;10.980;2023-08-31T03:26:26;966.2;;;13.2;100.0
51227;BME280;42714;48.260;10.980;2023-08-31T03:31:29;966.2;;;13.2;100.0
51227;BME280;42714;48.260;10.980;2023-08-31T03:36:28;966.3;;;13.0;100.0
51227;BME280;42714;48.260;10.980;2023-08-31T03:41:30;966.3;;;13.0;100.0
51227;BME280;42714;48.260;10.980;2023-08-31T03:46:30;966.4;;;13.0;100.0
51227;BME280;42714;48.260;10.980;2023-08-31T03:51:31;966.5;;;12.9;100.0
51227;BME280;42714;48.260;10.980;2023-08-31T03:56:32;966.4;;;13.0;100.0
51227;BME280;42714;48.260;10.980;2023-08-31T04:01:33;966.5;;;12.9;100.0
51227;BME280;42714;48.260;10.980;2023-08-31T04:06:34;966.5;;;12.8;100.0
51227;BME280;42714;48.260;10.980;2023-08-31T04:11:35;966.7;;;12.7;100.0
51227;BME280;42714;48.260;10.980;2023-08-31T04:16:36;966.7;;;12.7;100.0
51227;BME280;42714;48.260;10.980;2023-08-31T04:21:37;966.7;;;12.6;100.0
51227;BME280;42714;48.260;10.980;2023-08-31T04:26:39;966.7;;;12.6;100.0
51227;BME280;42714;48.260;10.980;2023-08-31T04:31:40;966.8;;;12.5;100.0
51227;BME280;42714;48.260;10.980;2023-08-31T04:36:41;966.8;;;12.4;100.0
51227;BME280;42714;48.260;10.980;2023-08-31T04:41:42;966.9;;;12.4;100.0
51227;BME280;42714;48.260;10.980;2023-08-31T04:46:43;967.0;;;12.5;100.0
51227;BME280;42714;48.260;10.980;2023-08-31T04:51:44;967.0;;;12.7;100.0
51227;BME280;42714;48.260;10.980;2023-08-31T04:56:45;967.0;;;12.9;100.0
51227;BME280;42714;48.260;10.980;2023-08-31T05:01:46;967.0;;;13.1;100.0
51227;BME280;42714;48.260;10.980;2023-08-31T05:06:47;967.1;;;13.2;100.0
51227;BME280;42714;48.260;10.980;2023-08-31T05:11:48;967.1;;;13.3;100.0
51227;BME280;42714;48.260;10.980;2023-08-31T05:16:49;967.2;;;13.3;100.0
51227;BME280;42714;48.260;10.980;2023-08-31T05:21:50;967.3;;;13.4;100.0
51227;BME280;42714;48.260;10.980;2023-08-31T05:26:51;967.2;;;13.4;100.0
51227;BME280;42714;48.260;10.980;2023-08-31T05:31:52;967.3;;;13.5;100.0
51227;BME280;42714;48.260;10.980;2023-08-31T05:36:53;967.3;;;13.5;100.0
51227;BME280;42714;48.260;10.980;2023-08-31T05:41:54;967.4;;;13.6;100.0
51227;BME280;42714;48.260;10.980;2023-08-31T05:46:55;967.4;;;13.8;100.0
51227;BME280;42714;48.260;10.980;2023-08-31T05:51:56;967.5;;;14.1;100.0
51227;BME280;42714;48.260;10.980;2023-08-31T05:56:57;967.4;;;14.3;100.0
51227;BME280;42714;48.260;10.980;2023-08-31T06:01:58;967.4;;;14.4;100.0
51227;BME280;42714;48.260;10.980;2023-08-31T06:06:59;967.4;;;14.4;100.0
51227;BME280;42714;48.260;10.980;2023-08-31T06:12:00;967.4;;;14.5;100.0
51227;BME280;42714;48.260;10.980;2023-08-31T06:17:01;967.4;;;14.8;100.0
51227;BME280;42714;48.260;10.980;2023-08-31T06:22:02;967.5;;;14.7;100.0
51227;BME280;42714;48.260;10.980;2023-08-31T06:27:03;967.6;;;14.7;100.0
51227;BME280;42714;48.260;10.980;2023-08-31T06:37:05;967.5;;;17.1;100.0
51227;BME280;42714;48.260;10.980;2023-08-31T06:42:06;967.6;;;17.2;100.0
51227;BME280;42714;48.260;10.980;2023-08-31T06:47:07;967.6;;;18.1;100.0
51227;BME280;42714;48.260;10.980;2023-08-31T06:52:08;967.7;;;18.3;100.0
51227;BME280;42714;48.260;10.980;2023-08-31T06:57:09;967.8;;;18.4;100.0
51227;BME280;42714;48.260;10.980;2023-08-31T07:02:10;967.8;;;18.4;100.0
51227;BME280;42714;48.260;10.980;2023-08-31T07:07:11;967.8;;;18.3;100.0
51227;BME280;42714;48.260;10.980;2023-08-31T07:12:12;967.7;;;18.5;100.0
51227;BME280;42714;48.260;10.980;2023-08-31T07:17:13;967.6;;;19.4;100.0
51227;BME280;42714;48.260;10.980;2023-08-31T07:22:14;967.7;;;20.8;100.0
51227;BME280;42714;48.260;10.980;2023-08-31T07:27:15;967.8;;;21.3;100.0
51227;BME280;42714;48.260;10.980;2023-08-31T07:32:16;967.8;;;20.5;100.0
51227;BME280;42714;48.260;10.980;2023-08-31T07:37:17;967.9;;;19.8;100.0
51227;BME280;42714;48.260;10.980;2023-08-31T07:42:18;967.9;;;19.4;100.0
51227;BME280;42714;48.260;10.980;2023-08-31T07:47:19;967.9;;;20.9;100.0
51227;BME280;42714;48.260;10.980;2023-08-31T07:52:20;967.9;;;22.4;100.0
51227;BME280;42714;48.260;10.980;2023-08-31T07:57:21;968.0;;;21.9;100.0
51227;BME280;42714;48.260;10.980;2023-08-31T08:02:22;968.1;;;20.7;100.0
51227;BME280;42714;48.260;10.980;2023-08-31T08:07:23;968.2;;;19.9;100.0
51227;BME280;42714;48.260;10.980;2023-08-31T08:12:24;968.2;;;19.7;100.0
51227;BME280;42714;48.260;10.980;2023-08-31T08:17:25;968.2;;;20.1;100.0
51227;BME280;42714;48.260;10.980;2023-08-31T08:22:26;968.3;;;19.8;100.0
51227;BME280;42714;48.260;10.980;2023-08-31T08:27:27;968.3;;;19.5;100.0
51227;BME280;42714;48.260;10.980;2023-08-31T08:32:28;968.3;;;18.9;100.0
51227;BME280;42714;48.260;10.980;2023-08-31T08:37:29;968.4;;;18.5;100.0
51227;BME280;42714;48.260;10.980;2023-08-31T08:42:30;968.5;;;18.6;100.0
51227;BME280;42714;48.260;10.980;2023-08-31T08:47:31;968.5;;;18.5;100.0
51227;BME280;42714;48.260;10.980;2023-08-31T08:52:32;968.5;;;18.7;100.0
51227;BME280;42714;48.260;10.980;2023-08-31T08:57:33;968.5;;;19.5;100.0
51227;BME280;42714;48.260;10.980;2023-08-31T09:02:34;968.5;;;20.0;100.0
51227;BME280;42714;48.260;10.980;2023-08-31T09:07:35;968.6;;;19.4;100.0
51227;BME280;42714;48.260;10.980;2023-08-31T09:12:36;968.7;;;18.6;100.0
51227;BME280;42714;48.260;10.980;2023-08-31T09:17:37;968.8;;;17.9;100.0
51227;BME280;42714;48.260;10.980;2023-08-31T09:22:38;968.8;;;17.1;100.0
51227;BME280;42714;48.260;10.980;2023-08-31T09:27:39;968.7;;;16.9;100.0
51227;BME280;42714;48.260;10.980;2023-08-31T09:32:40;968.6;;;18.1;100.0
51227;BME280;42714;48.260;10.980;2023-08-31T09:37:41;968.7;;;19.8;100.0
51227;BME280;42714;48.260;10.980;2023-08-31T09:42:42;968.8;;;19.6;100.0
51227;BME280;42714;48.260;10.980;2023-08-31T09:47:43;968.8;;;19.3;100.0
51227;BME280;42714;48.260;10.980;2023-08-31T09:52:44;968.8;;;19.9;100.0
51227;BME280;42714;48.260;10.980;2023-08-31T09:57:45;968.9;;;20.7;100.0
51227;BME280;42714;48.260;10.980;2023-08-31T10:02:46;968.9;;;19.5;100.0
51227;BME280;42714;48.260;10.980;2023-08-31T10:07:47;969.1;;;18.4;100.0
51227;BME280;42714;48.260;10.980;2023-08-31T10:12:48;969.0;;;17.6;100.0
51227;BME280;42714;48.260;10.980;2023-08-31T10:17:49;968.9;;;18.3;100.0
51227;BME280;42714;48.260;10.980;2023-08-31T10:22:50;968.8;;;20.9;100.0
51227;BME280;42714;48.260;10.980;2023-08-31T10:27:51;968.7;;;23.8;83.2
51227;BME280;42714;48.260;10.980;2023-08-31T10:38:04;968.8;;;25.9;53.6
51227;BME280;42714;48.260;10.980;2023-08-31T10:43:14;968.8;;;25.2;54.2
51227;BME280;42714;48.260;10.980;2023-08-31T10:47:55;968.8;;;24.6;54.9
51227;BME280;42714;48.260;10.980;2023-08-31T10:52:56;968.8;;;23.3;66.2
51227;BME280;42714;48.260;10.980;2023-08-31T10:57:57;968.9;;;22.1;86.5
51227;BME280;42714;48.260;10.980;2023-08-31T11:02:58;968.9;;;21.3;97.7
51227;BME280;42714;48.260;10.980;2023-08-31T11:07:59;968.8;;;21.0;100.0
51227;BME280;42714;48.260;10.980;2023-08-31T11:13:00;968.8;;;21.1;100.0
51227;BME280;42714;48.260;10.980;2023-08-31T11:18:01;968.7;;;23.7;80.6
51227;BME280;42714;48.260;10.980;2023-08-31T11:23:02;968.6;;;25.9;55.7
51227;BME280;42714;48.260;10.980;2023-08-31T11:28:05;968.6;;;27.1;48.3
51227;BME280;42714;48.260;10.980;2023-08-31T11:33:05;968.7;;;26.0;48.8
51227;BME280;42714;48.260;10.980;2023-08-31T11:38:05;968.7;;;25.2;54.8
51227;BME280;42714;48.260;10.980;2023-08-31T11:43:06;968.8;;;23.5;66.7
51227;BME280;42714;48.260;10.980;2023-08-31T11:48:07;968.8;;;22.6;72.7
51227;BME280;42714;48.260;10.980;2023-08-31T11:53:08;968.9;;;22.4;76.2
51227;BME280;42714;48.260;10.980;2023-08-31T11:58:09;969.0;;;22.0;78.2
51227;BME280;42714;48.260;10.980;2023-08-31T12:03:10;969.0;;;21.5;85.7
51227;BME280;42714;48.260;10.980;2023-08-31T12:08:11;969.0;;;21.4;82.7
51227;BME280;42714;48.260;10.980;2023-08-31T12:13:12;969.0;;;21.6;81.0
51227;BME280;42714;48.260;10.980;2023-08-31T12:18:13;969.0;;;21.8;71.5
51227;BME280;42714;48.260;10.980;2023-08-31T12:23:14;969.0;;;21.8;74.1
51227;BME280;42714;48.260;10.980;2023-08-31T12:28:16;969.1;;;21.5;78.1
51227;BME280;42714;48.260;10.980;2023-08-31T12:33:17;969.1;;;21.4;70.2
51227;BME280;42714;48.260;10.980;2023-08-31T12:38:17;969.1;;;21.7;67.2
51227;BME280;42714;48.260;10.980;2023-08-31T12:43:18;969.1;;;21.6;77.8
51227;BME280;42714;48.260;10.980;2023-08-31T12:48:19;969.0;;;22.4;64.5
51227;BME280;42714;48.260;10.980;2023-08-31T12:53:21;969.0;;;23.7;60.6
51227;BME280;42714;48.260;10.980;2023-08-31T12:58:21;968.9;;;24.2;49.2
51227;BME280;42714;48.260;10.980;2023-08-31T13:03:22;968.9;;;24.4;48.7
51227;BME280;42714;48.260;10.980;2023-08-31T13:08:23;968.8;;;25.0;49.6
51227;BME280;42714;48.260;10.980;2023-08-31T13:13:24;968.9;;;26.6;40.0
51227;BME280;42714;48.260;10.980;2023-08-31T13:18:25;968.8;;;27.7;38.0
51227;BME280;42714;48.260;10.980;2023-08-31T13:23:26;968.9;;;26.5;38.0
51227;BME280;42714;48.260;10.980;2023-08-31T13:28:27;968.9;;;25.1;39.3
51227;BME280;42714;48.260;10.980;2023-08-31T13:33:28;969.0;;;24.7;41.9
51227;BME280;42714;48.260;10.980;2023-08-31T13:38:29;969.0;;;23.9;44.8
51227;BME280;42714;48.260;10.980;2023-08-31T13:43:30;969.0;;;23.6;46.2
51227;BME280;42714;48.260;10.980;2023-08-31T13:48:31;969.0;;;22.9;47.8
51227;BME280;42714;48.260;10.980;2023-08-31T13:53:32;968.9;;;22.7;49.5
51227;BME280;42714;48.260;10.980;2023-08-31T13:58:33;968.8;;;22.8;48.5
51227;BME280;42714;48.260;10.980;2023-08-31T14:03:34;968.8;;;22.9;48.4
51227;BME280;42714;48.260;10.980;2023-08-31T14:08:35;968.9;;;23.6;44.2
51227;BME280;42714;48.260;10.980;2023-08-31T14:13:36;968.8;;;24.0;44.3
51227;BME280;42714;48.260;10.980;2023-08-31T14:18:37;968.9;;;23.2;48.8
51227;BME280;42714;48.260;10.980;2023-08-31T14:23:38;968.9;;;22.4;53.5
51227;BME280;42714;48.260;10.980;2023-08-31T14:28:39;968.9;;;22.2;54.4
51227;BME280;42714;48.260;10.980;2023-08-31T14:33:40;968.9;;;21.8;58.3
51227;BME280;42714;48.260;10.980;2023-08-31T14:38:41;968.9;;;21.7;69.3
51227;BME280;42714;48.260;10.980;2023-08-31T14:43:42;968.9;;;22.0;67.0
51227;BME280;42714;48.260;10.980;2023-08-31T14:48:43;968.9;;;22.1;68.3
51227;BME280;42714;48.260;10.980;2023-08-31T14:53:44;968.9;;;21.7;75.0
51227;BME280;42714;48.260;10.980;2023-08-31T14:58:45;968.9;;;21.8;72.0
51227;BME280;42714;48.260;10.980;2023-08-31T15:03:46;968.9;;;22.0;71.4
51227;BME280;42714;48.260;10.980;2023-08-31T15:08:47;969.0;;;22.2;66.4
51227;BME280;42714;48.260;10.980;2023-08-31T15:13:48;968.9;;;22.2;62.7
51227;BME280;42714;48.260;10.980;2023-08-31T15:18:49;968.9;;;22.1;66.0
51227;BME280;42714;48.260;10.980;2023-08-31T15:23:50;968.9;;;22.5;65.1
51227;BME280;42714;48.260;10.980;2023-08-31T15:28:51;968.8;;;22.0;69.4
51227;BME280;42714;48.260;10.980;2023-08-31T15:33:52;968.9;;;20.7;82.6
51227;BME280;42714;48.260;10.980;2023-08-31T15:38:53;968.9;;;20.1;93.7
51227;BME280;42714;48.260;10.980;2023-08-31T15:43:54;968.9;;;19.8;100.0
51227;BME280;42714;48.260;10.980;2023-08-31T15:48:55;968.9;;;19.5;100.0
51227;BME280;42714;48.260;10.980;2023-08-31T15:53:56;969.0;;;19.3;100.0
51227;BME280;42714;48.260;10.980;2023-08-31T15:58:57;968.9;;;19.3;100.0
51227;BME280;42714;48.260;10.980;2023-08-31T16:03:58;969.0;;;19.1;100.0
51227;BME280;42714;48.260;10.980;2023-08-31T16:08:59;969.0;;;19.0;100.0
51227;BME280;42714;48.260;10.980;2023-08-31T16:14:00;969.0;;;19.0;100.0
51227;BME280;42714;48.260;10.980;2023-08-31T16:19:01;969.1;;;19.0;100.0
51227;BME280;42714;48.260;10.980;2023-08-31T16:24:02;969.0;;;18.8;100.0
51227;BME280;42714;48.260;10.980;2023-08-31T16:29:03;969.1;;;18.7;100.0
51227;BME280;42714;48.260;10.980;2023-08-31T16:34:04;969.0;;;18.8;100.0
51227;BME280;42714;48.260;10.980;2023-08-31T16:39:05;969.0;;;18.9;100.0
51227;BME280;42714;48.260;10.980;2023-08-31T16:44:06;969.0;;;18.8;100.0
51227;BME280;42714;48.260;10.980;2023-08-31T16:49:07;969.0;;;18.6;100.0
51227;BME280;42714;48.260;10.980;2023-08-31T16:54:08;969.0;;;18.3;100.0
51227;BME280;42714;48.260;10.980;2023-08-31T16:59:09;969.0;;;18.1;100.0
51227;BME280;42714;48.260;10.980;2023-08-31T17:04:10;969.0;;;18.0;100.0
51227;BME280;42714;48.260;10.980;2023-08-31T17:09:11;969.0;;;18.0;100.0
51227;BME280;42714;48.260;10.980;2023-08-31T17:14:12;968.9;;;17.9;100.0
51227;BME280;42714;48.260;10.980;2023-08-31T17:19:13;968.9;;;17.7;100.0
51227;BME280;42714;48.260;10.980;2023-08-31T17:24:14;968.9;;;17.6;100.0
51227;BME280;42714;48.260;10.980;2023-08-31T17:29:15;968.9;;;17.5;100.0
51227;BME280;42714;48.260;10.980;2023-08-31T17:34:16;968.9;;;17.3;100.0
51227;BME280;42714;48.260;10.980;2023-08-31T17:39:17;968.9;;;17.3;100.0
51227;BME280;42714;48.260;10.980;2023-08-31T17:44:18;968.9;;;17.1;100.0
51227;BME280;42714;48.260;10.980;2023-08-31T17:49:19;969.0;;;17.1;100.0
51227;BME280;42714;48.260;10.980;2023-08-31T17:54:20;969.0;;;16.9;100.0
51227;BME280;42714;48.260;10.980;2023-08-31T17:59:21;969.1;;;16.7;100.0
51227;BME280;42714;48.260;10.980;2023-08-31T18:04:22;969.2;;;16.5;100.0
51227;BME280;42714;48.260;10.980;2023-08-31T18:09:23;969.2;;;16.4;100.0
51227;BME280;42714;48.260;10.980;2023-08-31T18:14:24;969.2;;;16.2;100.0
51227;BME280;42714;48.260;10.980;2023-08-31T18:19:25;969.3;;;16.1;100.0
51227;BME280;42714;48.260;10.980;2023-08-31T18:24:26;969.3;;;16.1;100.0
51227;BME280;42714;48.260;10.980;2023-08-31T18:29:27;969.4;;;16.1;100.0
51227;BME280;42714;48.260;10.980;2023-08-31T18:34:28;969.5;;;16.2;100.0
51227;BME280;42714;48.260;10.980;2023-08-31T18:39:29;969.5;;;16.2;100.0
51227;BME280;42714;48.260;10.980;2023-08-31T18:44:30;969.5;;;16.2;100.0
51227;BME280;42714;48.260;10.980;2023-08-31T18:49:31;969.6;;;16.1;100.0
51227;BME280;42714;48.260;10.980;2023-08-31T18:54:32;969.6;;;16.1;100.0
51227;BME280;42714;48.260;10.980;2023-08-31T18:59:33;969.6;;;16.1;100.0
51227;BME280;42714;48.260;10.980;2023-08-31T19:04:34;969.7;;;16.1;100.0
51227;BME280;42714;48.260;10.980;2023-08-31T19:09:35;969.7;;;16.1;100.0
51227;BME280;42714;48.260;10.980;2023-08-31T19:14:37;969.8;;;16.0;100.0
51227;BME280;42714;48.260;10.980;2023-08-31T19:19:37;969.8;;;15.9;100.0
51227;BME280;42714;48.260;10.980;2023-08-31T19:24:38;969.8;;;15.8;100.0
51227;BME280;42714;48.260;10.980;2023-08-31T19:29:39;969.8;;;15.8;100.0
51227;BME280;42714;48.260;10.980;2023-08-31T19:34:40;969.8;;;15.8;100.0
51227;BME280;42714;48.260;10.980;2023-08-31T19:39:41;969.9;;;15.8;100.0
51227;BME280;42714;48.260;10.980;2023-08-31T19:44:42;969.9;;;15.8;100.0
51227;BME280;42714;48.260;10.980;2023-08-31T19:49:43;969.9;;;15.8;100.0
51227;BME280;42714;48.260;10.980;2023-08-31T19:54:44;969.9;;;15.7;100.0
51227;BME280;42714;48.260;10.980;2023-08-31T19:59:45;969.9;;;15.7;100.0
51227;BME280;42714;48.260;10.980;2023-08-31T20:04:46;969.9;;;15.7;100.0
51227;BME280;42714;48.260;10.980;2023-08-31T20:09:47;969.9;;;15.6;100.0
51227;BME280;42714;48.260;10.980;2023-08-31T20:14:49;969.9;;;15.6;100.0
51227;BME280;42714;48.260;10.980;2023-08-31T20:19:49;969.9;;;15.5;100.0
51227;BME280;42714;48.260;10.980;2023-08-31T20:24:50;969.9;;;15.4;100.0
51227;BME280;42714;48.260;10.980;2023-08-31T20:29:51;969.9;;;15.4;100.0
51227;BME280;42714;48.260;10.980;2023-08-31T20:34:52;970.0;;;15.4;100.0
51227;BME280;42714;48.260;10.980;2023-08-31T20:39:53;970.1;;;15.4;100.0
51227;BME280;42714;48.260;10.980;2023-08-31T20:44:54;970.1;;;15.4;100.0
51227;BME280;42714;48.260;10.980;2023-08-31T20:49:55;970.2;;;15.5;100.0
51227;BME280;42714;48.260;10.980;2023-08-31T20:54:56;970.1;;;15.5;100.0
51227;BME280;42714;48.260;10.980;2023-08-31T20:59:57;970.2;;;15.6;100.0
51227;BME280;42714;48.260;10.980;2023-08-31T21:04:58;970.0;;;15.6;100.0
51227;BME280;42714;48.260;10.980;2023-08-31T21:09:59;970.1;;;15.6;100.0
51227;BME280;42714;48.260;10.980;2023-08-31T21:15:00;970.1;;;15.6;100.0
51227;BME280;42714;48.260;10.980;2023-08-31T21:20:01;970.0;;;15.6;100.0
51227;BME280;42714;48.260;10.980;2023-08-31T21:25:02;970.1;;;15.6;100.0
51227;BME280;42714;48.260;10.980;2023-08-31T21:35:04;970.1;;;15.6;100.0
51227;BME280;42714;48.260;10.980;2023-08-31T21:45:06;970.1;;;15.6;100.0
51227;BME280;42714;48.260;10.980;2023-08-31T21:50:08;970.1;;;15.6;100.0
51227;BME280;42714;48.260;10.980;2023-08-31T21:55:08;970.2;;;15.6;100.0
51227;BME280;42714;48.260;10.980;2023-08-31T22:05:10;970.3;;;15.6;100.0
51227;BME280;42714;48.260;10.980;2023-08-31T22:10:11;970.4;;;15.6;100.0
51227;BME280;42714;48.260;10.980;2023-08-31T22:15:14;970.4;;;15.7;100.0
51227;BME280;42714;48.260;10.980;2023-08-31T22:20:13;970.4;;;15.7;100.0
51227;BME280;42714;48.260;10.980;2023-08-31T22:25:14;970.5;;;15.7;100.0
51227;BME280;42714;48.260;10.980;2023-08-31T22:30:15;970.6;;;15.8;100.0
51227;BME280;42714;48.260;10.980;2023-08-31T22:35:16;970.5;;;15.9;100.0
51227;BME280;42714;48.260;10.980;2023-08-31T22:40:17;970.5;;;15.9;100.0
51227;BME280;42714;48.260;10.980;2023-08-31T22:45:18;970.5;;;15.9;100.0
51227;BME280;42714;48.260;10.980;2023-08-31T22:50:19;970.5;;;16.0;100.0
51227;BME280;42714;48.260;10.980;2023-08-31T22:55:20;970.5;;;15.9;100.0
51227;BME280;42714;48.260;10.980;2023-08-31T23:00:21;970.4;;;15.7;100.0
51227;BME280;42714;48.260;10.980;2023-08-31T23:05:22;970.5;;;15.5;100.0
51227;BME280;42714;48.260;10.980;2023-08-31T23:10:23;970.5;;;15.2;100.0
51227;BME280;42714;48.260;10.980;2023-08-31T23:15:24;970.5;;;15.2;100.0
51227;BME280;42714;48.260;10.980;2023-08-31T23:20:25;970.3;;;15.2;100.0
51227;BME280;42714;48.260;10.980;2023-08-31T23:25:26;970.4;;;15.1;100.0
51227;BME280;42714;48.260;10.980;2023-08-31T23:30:27;970.4;;;15.1;100.0
51227;BME280;42714;48.260;10.980;2023-08-31T23:35:28;970.4;;;15.2;100.0
51227;BME280;42714;48.260;10.980;2023-08-31T23:40:29;970.4;;;15.3;100.0
51227;BME280;42714;48.260;10.980;2023-08-31T23:45:30;970.4;;;15.5;100.0
51227;BME280;42714;48.260;10.980;2023-08-31T23:50:31;970.4;;;15.5;100.0
51227;BME280;42714;48.260;10.980;2023-08-31T23:55:37;970.5;;;15.5;100.0
